Time;durP1;ratioP1;P1;durP2;ratioP2;P2;SDS_P1;SDS_P2;PMS_P1;PMS_P2;Temp;Humidity;BMP_temperature;BMP_pressure;BME280_temperature;BME280_humidity;BME280_pressure;Samples;Min_cycle;Max_cycle;Signal;HPM_P1;HPM_P2
2021/06/17 00:00:35;;;;;;;10.98;6.38;;;;;;;;;;5043887;28;20040;-53
2021/06/17 00:03:02;;;;;;;13.48;7.03;;;;;;;;;;5063511;28;20137;-55
2021/06/17 00:05:30;;;;;;;9.15;5.55;;;;;;;;;;5039951;28;20074;-55
2021/06/17 00:07:57;;;;;;;12.00;5.65;;;;;;;;;;5063606;28;20060;-55
2021/06/17 00:10:25;;;;;;;13.32;6.07;;;;;;;;;;5041359;28;20145;-57
2021/06/17 00:12:52;;;;;;;11.70;6.30;;;;;;;;;;5044353;28;20126;-58
2021/06/17 00:15:20;;;;;;;12.27;5.63;;;;;;;;;;5060953;28;20040;-54
2021/06/17 00:17:47;;;;;;;11.00;6.20;;;;;;;;;;5045112;28;20033;-56
2021/06/17 00:20:14;;;;;;;9.60;5.75;;;;;;;;;;5042256;28;20059;-54
2021/06/17 00:22:41;;;;;;;15.10;6.00;;;;;;;;;;5045900;28;20051;-55
2021/06/17 00:25:08;;;;;;;11.18;5.78;;;;;;;;;;5058753;28;20052;-52
2021/06/17 00:27:34;;;;;;;16.33;6.55;;;;;;;;;;5045115;28;20041;-54
2021/06/17 00:30:01;;;;;;;11.77;5.88;;;;;;;;;;5042016;28;20064;-56
2021/06/17 00:32:29;;;;;;;15.30;6.10;;;;;;;;;;5044909;28;20042;-57
2021/06/17 00:34:57;;;;;;;11.07;6.60;;;;;;;;;;5041610;28;20040;-57
2021/06/17 00:37:23;;;;;;;14.43;6.50;;;;;;;;;;5044210;28;20122;-55
2021/06/17 00:39:50;;;;;;;12.60;5.85;;;;;;;;;;5041875;28;20040;-53
2021/06/17 00:42:19;;;;;;;15.27;6.30;;;;;;;;;;5024915;28;20041;-54
2021/06/17 00:44:46;;;;;;;11.73;5.65;;;;;;;;;;5044035;28;20121;-57
2021/06/17 00:47:12;;;;;;;13.32;5.88;;;;;;;;;;5041128;28;20036;-57
2021/06/17 00:49:40;;;;;;;11.95;6.32;;;;;;;;;;5062124;28;20041;-56
2021/06/17 00:52:07;;;;;;;9.75;5.57;;;;;;;;;;5039914;28;20126;-58
2021/06/17 00:54:34;;;;;;;10.98;6.10;;;;;;;;;;5042774;28;20052;-56
2021/06/17 00:57:01;;;;;;;9.07;5.22;;;;;;;;;;5038613;28;20051;-58
2021/06/17 00:59:28;;;;;;;9.10;5.63;;;;;;;;;;5043505;28;20064;-57
2021/06/17 01:01:54;;;;;;;11.27;6.05;;;;;;;;;;5039655;28;20044;-58
2021/06/17 01:04:20;;;;;;;10.38;5.95;;;;;;;;;;5041157;28;20059;-54
2021/06/17 01:06:49;;;;;;;10.40;6.03;;;;;;;;;;5039852;28;20040;-55
2021/06/17 01:09:20;;;;;;;14.73;6.00;;;;;;;;;;5036447;28;20130;-55
2021/06/17 01:11:49;;;;;;;13.52;6.15;;;;;;;;;;5044824;28;20121;-56
2021/06/17 01:14:19;;;;;;;11.13;6.38;;;;;;;;;;5043297;28;20043;-56
2021/06/17 01:16:49;;;;;;;13.45;5.90;;;;;;;;;;5041798;28;20041;-57
2021/06/17 01:19:21;;;;;;;11.98;5.75;;;;;;;;;;5044026;28;20036;-55
2021/06/17 01:22:02;;;;;;;11.18;5.97;;;;;;;;;;5041335;28;20067;-54
2021/06/17 01:24:34;;;;;;;12.13;6.13;;;;;;;;;;5043462;28;20044;-54
2021/06/17 01:27:27;;;;;;;12.88;6.68;;;;;;;;;;5041269;28;20126;-56
2021/06/17 01:29:57;;;;;;;14.48;6.65;;;;;;;;;;5044425;28;20044;-52
2021/06/17 01:32:24;;;;;;;12.52;6.07;;;;;;;;;;5040590;28;20044;-57
2021/06/17 01:34:52;;;;;;;13.50;6.33;;;;;;;;;;5044392;28;20041;-53
2021/06/17 01:37:22;;;;;;;11.48;5.80;;;;;;;;;;5041364;28;20068;-54
2021/06/17 01:39:50;;;;;;;11.30;5.85;;;;;;;;;;5043138;28;20122;-54
2021/06/17 01:42:16;;;;;;;11.15;6.35;;;;;;;;;;5040968;28;20118;-58
2021/06/17 01:44:44;;;;;;;14.40;6.22;;;;;;;;;;5044103;28;20040;-56
2021/06/17 01:47:13;;;;;;;13.67;6.30;;;;;;;;;;5044267;28;20041;-54
2021/06/17 01:49:41;;;;;;;12.40;6.05;;;;;;;;;;5059330;28;20045;-55
2021/06/17 01:52:07;;;;;;;12.00;6.28;;;;;;;;;;5042524;28;20045;-57
2021/06/17 01:54:39;;;;;;;11.73;6.53;;;;;;;;;;5040217;28;20044;-54
2021/06/17 01:57:06;;;;;;;10.27;6.30;;;;;;;;;;5043195;28;20036;-55
2021/06/17 01:59:33;;;;;;;12.65;6.70;;;;;;;;;;5042369;28;20033;-55
2021/06/17 02:02:00;;;;;;;15.18;6.72;;;;;;;;;;5027614;28;20048;-55
2021/06/17 02:04:28;;;;;;;12.82;6.75;;;;;;;;;;5032741;28;20045;-56
2021/06/17 02:06:55;;;;;;;11.57;6.88;;;;;;;;;;5044409;28;20121;-55
2021/06/17 02:09:23;;;;;;;12.13;6.45;;;;;;;;;;5039875;28;20045;-57
2021/06/17 02:11:50;;;;;;;12.93;6.80;;;;;;;;;;5045407;28;20021;-51
2021/06/17 02:14:17;;;;;;;12.18;6.85;;;;;;;;;;5044110;28;20048;-54
2021/06/17 02:16:44;;;;;;;13.00;6.97;;;;;;;;;;5064772;28;20041;-56
2021/06/17 02:19:12;;;;;;;10.70;6.40;;;;;;;;;;5038734;28;20105;-57
2021/06/17 02:21:41;;;;;;;10.55;6.85;;;;;;;;;;5060460;28;20056;-55
2021/06/17 02:24:09;;;;;;;10.05;6.45;;;;;;;;;;5039304;28;20126;-57
2021/06/17 02:26:39;;;;;;;12.32;6.82;;;;;;;;;;5030974;28;20073;-57
2021/06/17 02:29:07;;;;;;;10.80;6.68;;;;;;;;;;5037604;28;20037;-57
2021/06/17 02:31:34;;;;;;;10.70;6.60;;;;;;;;;;5059870;28;20049;-58
2021/06/17 02:34:01;;;;;;;10.73;6.78;;;;;;;;;;5043466;28;20037;-60
2021/06/17 02:36:29;;;;;;;14.95;6.45;;;;;;;;;;5040194;28;20037;-55
2021/06/17 02:38:59;;;;;;;16.80;6.65;;;;;;;;;;5043113;28;20044;-56
2021/06/17 02:41:26;;;;;;;14.63;6.93;;;;;;;;;;5040249;28;20053;-55
2021/06/17 02:43:53;;;;;;;14.95;7.10;;;;;;;;;;5043315;28;20060;-53
2021/06/17 02:46:20;;;;;;;10.52;6.80;;;;;;;;;;5040184;28;20049;-58
2021/06/17 02:48:47;;;;;;;9.87;6.80;;;;;;;;;;5035788;28;20061;-52
2021/06/17 02:51:14;;;;;;;11.93;7.10;;;;;;;;;;5038308;28;20122;-57
2021/06/17 02:53:40;;;;;;;11.88;6.35;;;;;;;;;;5061290;28;20130;-55
2021/06/17 02:56:11;;;;;;;14.27;7.20;;;;;;;;;;5040269;28;20041;-56
2021/06/17 02:58:53;;;;;;;13.93;7.05;;;;;;;;;;5043204;28;20048;-55
2021/06/17 03:01:22;;;;;;;12.43;6.88;;;;;;;;;;5039222;28;20048;-51
2021/06/17 03:03:48;;;;;;;;;;;;;;;;;;5040650;28;20057;-55
2021/06/17 03:06:18;;;;;;;10.20;6.68;;;;;;;;;;5037282;28;19924;-54
2021/06/17 03:08:49;;;;;;;10.52;6.95;;;;;;;;;;5046233;28;20086;-56
2021/06/17 03:11:18;;;;;;;12.15;7.35;;;;;;;;;;5061872;28;20052;-57
2021/06/17 03:13:47;;;;;;;17.52;8.57;;;;;;;;;;5046512;28;20041;-56
2021/06/17 03:16:16;;;;;;;18.55;8.48;;;;;;;;;;5042692;28;20118;-57
2021/06/17 03:18:44;;;;;;;19.67;8.52;;;;;;;;;;5063002;28;20036;-56
2021/06/17 03:21:10;;;;;;;17.92;9.23;;;;;;;;;;5060333;28;20044;-52
2021/06/17 03:23:39;;;;;;;17.77;9.93;;;;;;;;;;5046518;28;20037;-55
2021/06/17 03:26:08;;;;;;;17.95;9.18;;;;;;;;;;5044703;28;20046;-58
2021/06/17 03:28:38;;;;;;;16.35;8.73;;;;;;;;;;5042745;28;20053;-55
2021/06/17 03:31:06;;;;;;;19.30;8.98;;;;;;;;;;5062919;28;20118;-57
2021/06/17 03:33:36;;;;;;;19.13;10.20;;;;;;;;;;5060735;28;20170;-54
2021/06/17 03:36:04;;;;;;;19.27;9.88;;;;;;;;;;5045578;28;20045;-53
2021/06/17 03:38:31;;;;;;;16.42;9.02;;;;;;;;;;5043131;28;20068;-57
2021/06/17 03:40:59;;;;;;;18.88;9.45;;;;;;;;;;5046013;28;20061;-53
2021/06/17 03:43:25;;;;;;;15.77;8.82;;;;;;;;;;5044828;28;20170;-54
2021/06/17 03:45:57;;;;;;;14.43;9.38;;;;;;;;;;5048242;28;20048;-58
2021/06/17 03:48:23;;;;;;;17.70;9.60;;;;;;;;;;5062311;28;20033;-58
2021/06/17 03:50:50;;;;;;;14.50;9.45;;;;;;;;;;5064149;28;20053;-58
2021/06/17 03:53:19;;;;;;;17.15;9.05;;;;;;;;;;5042241;28;20041;-54
2021/06/17 03:55:46;;;;;;;17.33;9.88;;;;;;;;;;5045402;28;20045;-57
2021/06/17 03:58:13;;;;;;;18.15;9.38;;;;;;;;;;5042211;28;20048;-58
2021/06/17 04:00:40;;;;;;;15.55;8.85;;;;;;;;;;5062022;28;20052;-57
2021/06/17 04:03:10;;;;;;;18.23;9.43;;;;;;;;;;5041606;28;20130;-58
2021/06/17 04:05:37;;;;;;;17.45;9.70;;;;;;;;;;5040758;28;20069;-59
2021/06/17 04:08:04;;;;;;;20.00;9.23;;;;;;;;;;5054303;28;20125;-58
2021/06/17 04:10:31;;;;;;;18.10;8.98;;;;;;;;;;5026896;28;20048;-57
2021/06/17 04:12:59;;;;;;;21.35;9.68;;;;;;;;;;5024958;28;20045;-56
2021/06/17 04:15:27;;;;;;;15.20;8.93;;;;;;;;;;5059684;28;20051;-55
2021/06/17 04:17:54;;;;;;;15.90;9.20;;;;;;;;;;5061524;28;20045;-58
2021/06/17 04:20:24;;;;;;;16.25;9.63;;;;;;;;;;5041815;28;20033;-57
2021/06/17 04:22:52;;;;;;;18.95;9.50;;;;;;;;;;5045414;28;20088;-56
2021/06/17 04:25:20;;;;;;;17.92;9.45;;;;;;;;;;5060499;28;20064;-55
2021/06/17 04:27:47;;;;;;;15.63;8.43;;;;;;;;;;5046047;28;20045;-55
2021/06/17 04:30:15;;;;;;;16.35;9.23;;;;;;;;;;5041247;28;20056;-59
2021/06/17 04:32:43;;;;;;;29.55;9.30;;;;;;;;;;5045489;28;20048;-55
2021/06/17 04:35:11;;;;;;;14.35;8.70;;;;;;;;;;5041850;28;20140;-57
2021/06/17 04:37:39;;;;;;;19.92;8.55;;;;;;;;;;5046000;28;20039;-52
2021/06/17 04:40:06;;;;;;;16.73;8.90;;;;;;;;;;5042450;28;20052;-55
2021/06/17 04:42:33;;;;;;;18.83;9.50;;;;;;;;;;5043306;28;20060;-55
2021/06/17 04:45:00;;;;;;;15.90;9.30;;;;;;;;;;5041819;28;20067;-50
2021/06/17 04:47:26;;;;;;;15.55;9.23;;;;;;;;;;5063451;28;20073;-52
2021/06/17 04:49:53;;;;;;;21.35;9.23;;;;;;;;;;5060703;28;20052;-53
2021/06/17 04:52:21;;;;;;;16.75;9.23;;;;;;;;;;5044155;28;20045;-56
2021/06/17 04:54:49;;;;;;;16.10;9.70;;;;;;;;;;5036831;28;20065;-51
2021/06/17 04:57:15;;;;;;;16.65;9.27;;;;;;;;;;5030824;28;20134;-52
2021/06/17 04:59:42;;;;;;;19.65;9.50;;;;;;;;;;5050293;28;20033;-53
2021/06/17 05:02:08;;;;;;;17.67;8.90;;;;;;;;;;5045662;28;20049;-52
2021/06/17 05:04:36;;;;;;;17.95;9.10;;;;;;;;;;5034648;28;20041;-50
2021/06/17 05:07:23;;;;;;;13.85;8.07;;;;;;;;;;5036196;28;20044;-49
2021/06/17 05:12:35;;;;;;;24.73;8.43;;;;;;;;;;5034531;28;20097;-46
2021/06/17 05:15:02;;;;;;;15.57;8.75;;;;;;;;;;5027837;28;20045;-49
2021/06/17 05:17:30;;;;;;;19.02;8.48;;;;;;;;;;5026906;28;20061;-48
2021/06/17 05:19:58;;;;;;;17.13;8.75;;;;;;;;;;5052661;28;20049;-52
2021/06/17 05:22:24;;;;;;;16.60;8.02;;;;;;;;;;5046078;28;20045;-50
2021/06/17 05:24:53;;;;;;;17.55;8.10;;;;;;;;;;5039789;28;20053;-53
2021/06/17 05:27:19;;;;;;;16.35;7.63;;;;;;;;;;5028510;28;20126;-53
2021/06/17 05:29:46;;;;;;;15.32;7.97;;;;;;;;;;5047926;28;20057;-51
2021/06/17 05:32:15;;;;;;;17.25;7.93;;;;;;;;;;5029331;28;20068;-55
2021/06/17 05:34:41;;;;;;;15.32;7.95;;;;;;;;;;5032782;28;20029;-54
2021/06/17 05:37:08;;;;;;;17.30;7.65;;;;;;;;;;5025002;28;20044;-54
2021/06/17 05:39:34;;;;;;;14.52;7.90;;;;;;;;;;5031673;28;20175;-57
2021/06/17 05:42:03;;;;;;;13.25;6.93;;;;;;;;;;5033285;28;20088;-57
2021/06/17 05:44:29;;;;;;;15.77;7.88;;;;;;;;;;5038036;28;20040;-58
2021/06/17 05:46:55;;;;;;;13.73;7.25;;;;;;;;;;5034022;28;20094;-57
2021/06/17 05:49:24;;;;;;;14.07;7.05;;;;;;;;;;5028872;28;20045;-51
2021/06/17 05:51:50;;;;;;;18.48;6.50;;;;;;;;;;5033427;28;20037;-54
2021/06/17 05:54:19;;;;;;;23.85;7.80;;;;;;;;;;5025305;28;20041;-54
2021/06/17 05:56:48;;;;;;;12.75;6.93;;;;;;;;;;5033350;28;20045;-53
2021/06/17 05:59:18;;;;;;;13.25;6.32;;;;;;;;;;5017816;28;20061;-52
2021/06/17 06:01:44;;;;;;;14.35;6.82;;;;;;;;;;5047427;28;20118;-54
2021/06/17 06:04:11;;;;;;;13.93;6.68;;;;;;;;;;5023547;28;20058;-52
2021/06/17 06:06:38;;;;;;;18.35;6.85;;;;;;;;;;5034931;28;20045;-52
2021/06/17 06:09:04;;;;;;;12.75;7.18;;;;;;;;;;5027321;28;20028;-50
2021/06/17 06:11:31;;;;;;;13.38;6.60;;;;;;;;;;5046608;28;20045;-50
2021/06/17 06:13:58;;;;;;;15.13;7.25;;;;;;;;;;5025844;28;20045;-57
2021/06/17 06:16:27;;;;;;;11.95;7.35;;;;;;;;;;5027967;28;20045;-52
2021/06/17 06:18:54;;;;;;;13.70;7.45;;;;;;;;;;5038542;28;20045;-55
2021/06/17 06:21:20;;;;;;;13.32;6.45;;;;;;;;;;5062294;28;20040;-58
2021/06/17 06:23:47;;;;;;;11.10;7.28;;;;;;;;;;5039926;28;20029;-56
2021/06/17 06:26:13;;;;;;;12.57;7.00;;;;;;;;;;5043538;28;20041;-53
2021/06/17 06:28:40;;;;;;;15.07;7.38;;;;;;;;;;5041369;28;20110;-58
2021/06/17 06:31:06;;;;;;;11.63;6.38;;;;;;;;;;5043036;28;20073;-52
2021/06/17 06:33:34;;;;;;;11.48;6.30;;;;;;;;;;5044079;28;20057;-53
2021/06/17 06:36:02;;;;;;;13.45;6.50;;;;;;;;;;5038992;28;20055;-56
2021/06/17 06:38:29;;;;;;;13.13;6.30;;;;;;;;;;5044539;28;20037;-57
2021/06/17 06:40:55;;;;;;;15.63;5.63;;;;;;;;;;5041296;28;20048;-58
2021/06/17 06:43:22;;;;;;;14.38;5.38;;;;;;;;;;5064811;28;20121;-58
2021/06/17 06:45:48;;;;;;;9.73;5.72;;;;;;;;;;5044086;28;20048;-59
2021/06/17 06:48:18;;;;;;;9.55;5.78;;;;;;;;;;5065514;28;20037;-58
2021/06/17 06:50:47;;;;;;;11.85;5.95;;;;;;;;;;5044228;28;20041;-58
2021/06/17 06:53:14;;;;;;;9.25;5.05;;;;;;;;;;5046119;28;20065;-57
2021/06/17 06:55:41;;;;;;;14.50;5.60;;;;;;;;;;5043443;28;20084;-58
2021/06/17 06:58:07;;;;;;;15.95;5.50;;;;;;;;;;5046365;28;20043;-59
2021/06/17 07:00:33;;;;;;;11.05;5.35;;;;;;;;;;5041956;28;20049;-58
2021/06/17 07:03:00;;;;;;;11.98;5.07;;;;;;;;;;5046372;28;20041;-58
2021/06/17 07:05:27;;;;;;;12.00;4.72;;;;;;;;;;5040345;28;20049;-57
2021/06/17 07:07:55;;;;;;;10.85;5.20;;;;;;;;;;5045443;28;20122;-59
2021/06/17 07:10:21;;;;;;;13.23;4.63;;;;;;;;;;5041322;28;20157;-55
2021/06/17 07:12:48;;;;;;;17.98;4.75;;;;;;;;;;5044161;28;20040;-57
2021/06/17 07:15:19;;;;;;;8.73;4.80;;;;;;;;;;5047100;28;20037;-58
2021/06/17 07:17:46;;;;;;;10.75;5.53;;;;;;;;;;5042256;28;20085;-58
2021/06/17 07:20:12;;;;;;;20.98;6.25;;;;;;;;;;5045804;28;20083;-56
2021/06/17 07:22:39;;;;;;;10.48;5.30;;;;;;;;;;5042803;28;20055;-57
2021/06/17 07:25:08;;;;;;;10.57;4.72;;;;;;;;;;5064579;28;20122;-56
2021/06/17 07:27:34;;;;;;;12.75;5.05;;;;;;;;;;5042111;28;20125;-54
2021/06/17 07:30:01;;;;;;;13.15;5.20;;;;;;;;;;5045658;28;20045;-58
2021/06/17 07:32:27;;;;;;;9.95;5.25;;;;;;;;;;5060190;28;20055;-59
2021/06/17 07:34:56;;;;;;;15.50;5.45;;;;;;;;;;5044165;28;20040;-52
2021/06/17 07:37:23;;;;;;;13.02;4.90;;;;;;;;;;5042642;28;20029;-58
2021/06/17 07:39:49;;;;;;;8.82;4.63;;;;;;;;;;5046301;28;20040;-56
2021/06/17 07:42:17;;;;;;;12.73;5.18;;;;;;;;;;5041707;28;20041;-58
2021/06/17 07:44:49;;;;;;;12.90;4.70;;;;;;;;;;5045045;28;20051;-56
2021/06/17 07:47:16;;;;;;;9.85;5.00;;;;;;;;;;5042849;28;20134;-55
2021/06/17 07:49:43;;;;;;;14.18;4.40;;;;;;;;;;5045548;28;20040;-58
2021/06/17 07:52:09;;;;;;;14.30;4.10;;;;;;;;;;5060440;28;20118;-57
2021/06/17 07:54:36;;;;;;;9.98;4.22;;;;;;;;;;5018409;28;20033;-58
2021/06/17 07:57:04;;;;;;;10.93;4.28;;;;;;;;;;5042500;28;20056;-58
2021/06/17 07:59:30;;;;;;;;;;;;;;;;;;5061778;28;20179;-57
2021/06/17 08:01:58;;;;;;;7.80;3.70;;;;;;;;;;5061966;28;19928;-56
2021/06/17 08:04:26;;;;;;;11.15;3.85;;;;;;;;;;5040361;28;20066;-56
2021/06/17 08:06:53;;;;;;;11.38;3.75;;;;;;;;;;5044873;28;20044;-54
2021/06/17 08:09:20;;;;;;;9.50;3.83;;;;;;;;;;5035241;28;20033;-57
2021/06/17 08:11:48;;;;;;;11.40;3.90;;;;;;;;;;5025666;28;20105;-57
2021/06/17 08:14:18;;;;;;;8.23;4.13;;;;;;;;;;5035070;28;20054;-57
2021/06/17 08:16:45;;;;;;;13.02;3.80;;;;;;;;;;5044551;28;20049;-59
2021/06/17 08:19:13;;;;;;;9.45;3.90;;;;;;;;;;5041764;28;20040;-57
2021/06/17 08:21:39;;;;;;;8.02;3.72;;;;;;;;;;5046862;28;20041;-58
2021/06/17 08:24:06;;;;;;;8.18;3.33;;;;;;;;;;5041506;28;20056;-56
2021/06/17 08:26:33;;;;;;;10.27;3.80;;;;;;;;;;5063602;28;20068;-59
2021/06/17 08:28:59;;;;;;;16.10;5.60;;;;;;;;;;5041490;28;20055;-58
2021/06/17 08:31:28;;;;;;;15.82;5.25;;;;;;;;;;5061918;28;20033;-57
2021/06/17 08:33:54;;;;;;;16.90;5.22;;;;;;;;;;5031451;28;20059;-59
2021/06/17 08:36:23;;;;;;;31.10;8.65;;;;;;;;;;5043453;28;20093;-58
2021/06/17 08:38:50;;;;;;;19.95;5.97;;;;;;;;;;5043350;28;20045;-59
2021/06/17 08:41:16;;;;;;;8.70;4.05;;;;;;;;;;5061489;28;20080;-59
2021/06/17 08:43:42;;;;;;;13.02;3.95;;;;;;;;;;5043759;28;20057;-59
2021/06/17 08:46:09;;;;;;;13.63;4.10;;;;;;;;;;5039979;28;20156;-58
2021/06/17 08:48:36;;;;;;;9.10;3.58;;;;;;;;;;5043473;28;20069;-58
2021/06/17 08:51:03;;;;;;;8.00;3.90;;;;;;;;;;5041467;28;20203;-59
2021/06/17 08:53:32;;;;;;;8.45;3.72;;;;;;;;;;5043826;28;20053;-59
2021/06/17 08:55:59;;;;;;;7.55;3.67;;;;;;;;;;5040607;28;20118;-60
2021/06/17 08:58:25;;;;;;;14.20;4.28;;;;;;;;;;5044815;28;20044;-59
2021/06/17 09:00:52;;;;;;;13.10;3.50;;;;;;;;;;5041189;28;20044;-58
2021/06/17 09:03:19;;;;;;;9.10;3.95;;;;;;;;;;5044348;28;20094;-58
2021/06/17 09:05:50;;;;;;;9.43;3.75;;;;;;;;;;5040525;28;20130;-58
2021/06/17 09:08:22;;;;;;;7.90;3.67;;;;;;;;;;5061635;28;20036;-59
2021/06/17 09:10:50;;;;;;;8.70;3.50;;;;;;;;;;5029262;28;20055;-59
2021/06/17 09:13:16;;;;;;;8.50;3.67;;;;;;;;;;5061947;28;20041;-59
2021/06/17 09:15:44;;;;;;;10.80;3.83;;;;;;;;;;5042175;28;20041;-56
2021/06/17 09:18:12;;;;;;;8.80;4.47;;;;;;;;;;5045582;28;20076;-59
2021/06/17 09:20:38;;;;;;;11.68;4.70;;;;;;;;;;5041614;28;20044;-59
2021/06/17 09:23:35;;;;;;;8.25;4.07;;;;;;;;;;5044506;28;20040;-57
2021/06/17 09:26:04;;;;;;;6.07;3.27;;;;;;;;;;4960679;28;20153;-59
2021/06/17 09:28:45;;;;;;;8.27;3.53;;;;;;;;;;5025990;28;20141;-59
2021/06/17 09:31:13;;;;;;;6.22;3.33;;;;;;;;;;5058803;28;20033;-55
2021/06/17 09:33:41;;;;;;;14.30;3.30;;;;;;;;;;5043801;28;20048;-58
2021/06/17 09:36:09;;;;;;;10.38;3.40;;;;;;;;;;5041968;28;20049;-57
2021/06/17 09:38:42;;;;;;;6.78;3.10;;;;;;;;;;5062778;28;20056;-59
2021/06/17 09:41:10;;;;;;;7.95;3.15;;;;;;;;;;5044843;28;20040;-57
2021/06/17 09:43:39;;;;;;;;;;;;;;;;;;5044290;28;20052;-59
2021/06/17 09:46:09;;;;;;;10.80;3.55;;;;;;;;;;5043498;28;19912;-58
2021/06/17 09:48:37;;;;;;;8.82;3.50;;;;;;;;;;5041159;28;20040;-57
2021/06/17 09:51:22;;;;;;;8.13;3.25;;;;;;;;;;5062850;28;20090;-58
2021/06/17 09:53:49;;;;;;;19.77;3.47;;;;;;;;;;5030881;28;20114;-60
2021/06/17 09:56:18;;;;;;;9.50;3.40;;;;;;;;;;5057634;28;20049;-57
2021/06/17 09:58:45;;;;;;;8.52;3.38;;;;;;;;;;5038293;28;20033;-58
2021/06/17 10:01:16;;;;;;;12.23;4.78;;;;;;;;;;5043435;28;20057;-58
2021/06/17 10:03:42;;;;;;;9.07;3.50;;;;;;;;;;5037126;28;20033;-59
2021/06/17 10:06:19;;;;;;;10.55;3.25;;;;;;;;;;5058855;28;20037;-59
2021/06/17 10:08:46;;;;;;;13.47;3.20;;;;;;;;;;5040854;28;20057;-59
2021/06/17 10:11:13;;;;;;;7.70;3.13;;;;;;;;;;5043830;28;20040;-58
2021/06/17 10:13:41;;;;;;;15.00;3.22;;;;;;;;;;5037253;28;20060;-60
2021/06/17 10:16:16;;;;;;;;;;;;;;;;;;5046427;28;20041;-60
2021/06/17 10:18:44;;;;;;;15.88;3.33;;;;;;;;;;5060313;28;19969;-59
2021/06/17 10:21:12;;;;;;;12.70;3.53;;;;;;;;;;5047154;28;20033;-59
2021/06/17 10:23:39;;;;;;;13.55;3.65;;;;;;;;;;5043381;28;20069;-58
2021/06/17 10:26:06;;;;;;;9.73;3.17;;;;;;;;;;5047626;28;20033;-59
2021/06/17 10:28:41;;;;;;;12.23;3.72;;;;;;;;;;5043469;28;20040;-59
2021/06/17 10:31:08;;;;;;;8.60;3.28;;;;;;;;;;5045248;28;20055;-58
2021/06/17 10:33:36;;;;;;;13.15;2.80;;;;;;;;;;5043552;28;20068;-59
2021/06/17 10:36:23;;;;;;;8.23;2.47;;;;;;;;;;5045895;28;20146;-59
2021/06/17 10:39:09;;;;;;;6.22;2.75;;;;;;;;;;5043464;28;20106;-57
2021/06/17 10:42:10;;;;;;;11.20;3.50;;;;;;;;;;5046357;28;20047;-58
2021/06/17 10:44:45;;;;;;;12.15;2.97;;;;;;;;;;4980000;28;20049;-58
2021/06/17 10:47:43;;;;;;;10.77;2.90;;;;;;;;;;4985534;28;20070;-58
2021/06/17 10:50:12;;;;;;;7.55;3.08;;;;;;;;;;5025658;28;20057;-58
2021/06/17 10:52:40;;;;;;;7.63;2.88;;;;;;;;;;5047474;28;20048;-59
2021/06/17 10:55:08;;;;;;;6.60;3.10;;;;;;;;;;5042587;28;20048;-59
2021/06/17 10:57:54;;;;;;;6.35;3.03;;;;;;;;;;5051499;28;20113;-59
2021/06/17 11:00:39;;;;;;;7.82;3.28;;;;;;;;;;5054851;28;20087;-58
2021/06/17 11:03:35;;;;;;;10.40;3.50;;;;;;;;;;5047558;28;20048;-59
2021/06/17 11:06:04;;;;;;;7.38;3.30;;;;;;;;;;5037770;28;20045;-58
2021/06/17 11:08:30;;;;;;;8.80;3.17;;;;;;;;;;5063015;28;20033;-58
2021/06/17 11:11:00;;;;;;;8.68;3.40;;;;;;;;;;5014748;28;20061;-57
2021/06/17 11:13:27;;;;;;;8.25;3.70;;;;;;;;;;5062367;28;20049;-59
2021/06/17 11:15:54;;;;;;;9.70;3.13;;;;;;;;;;5042435;28;20025;-59
2021/06/17 11:18:54;;;;;;;7.60;3.10;;;;;;;;;;5046604;28;20041;-58
2021/06/17 11:21:39;;;;;;;7.95;3.42;;;;;;;;;;4981623;28;20128;-58
2021/06/17 11:24:21;;;;;;;7.43;2.90;;;;;;;;;;5040346;28;20037;-58
2021/06/17 11:26:50;;;;;;;6.57;2.78;;;;;;;;;;5059611;28;20053;-57
2021/06/17 11:29:18;;;;;;;6.88;2.80;;;;;;;;;;5028258;28;20048;-58
2021/06/17 11:31:46;;;;;;;4.85;2.70;;;;;;;;;;5042732;28;20055;-59
2021/06/17 11:34:12;;;;;;;7.07;3.20;;;;;;;;;;5064386;28;20051;-60
2021/06/17 11:36:47;;;;;;;5.30;3.30;;;;;;;;;;5042419;28;20052;-59
2021/06/17 11:39:20;;;;;;;13.48;3.25;;;;;;;;;;5045821;28;20052;-59
2021/06/17 11:41:48;;;;;;;13.05;2.90;;;;;;;;;;5042219;28;20041;-57
2021/06/17 11:44:15;;;;;;;;;;;;;;;;;;5046242;28;20037;-59
2021/06/17 11:46:42;;;;;;;10.95;2.55;;;;;;;;;;5040610;28;19924;-59
2021/06/17 11:49:10;;;;;;;7.80;2.92;;;;;;;;;;5045175;28;20037;-60
2021/06/17 11:51:41;;;;;;;12.38;3.60;;;;;;;;;;5059416;28;20045;-59
2021/06/17 11:54:08;;;;;;;7.97;2.50;;;;;;;;;;5046917;28;20051;-58
2021/06/17 11:56:34;;;;;;;19.67;2.60;;;;;;;;;;5042517;28;20043;-59
2021/06/17 11:59:19;;;;;;;11.05;2.60;;;;;;;;;;5043763;28;20134;-58
2021/06/17 12:02:09;;;;;;;11.40;2.55;;;;;;;;;;5031863;28;20054;-59
2021/06/17 12:04:56;;;;;;;8.80;2.95;;;;;;;;;;5041415;28;20069;-60
2021/06/17 12:07:27;;;;;;;7.83;2.50;;;;;;;;;;5058878;28;20041;-60
2021/06/17 12:09:54;;;;;;;6.00;2.50;;;;;;;;;;5033710;28;20045;-60
2021/06/17 12:12:22;;;;;;;4.90;2.53;;;;;;;;;;5040497;28;20048;-59
2021/06/17 12:14:51;;;;;;;8.88;2.58;;;;;;;;;;5046893;28;20051;-59
2021/06/17 12:17:31;;;;;;;6.65;2.45;;;;;;;;;;5063083;28;20044;-58
2021/06/17 12:19:59;;;;;;;5.32;2.40;;;;;;;;;;5025392;28;20107;-57
2021/06/17 12:22:25;;;;;;;9.13;2.20;;;;;;;;;;5024761;28;20049;-58
2021/06/17 12:24:55;;;;;;;8.55;2.40;;;;;;;;;;5041591;28;20052;-60
2021/06/17 12:27:21;;;;;;;7.75;1.98;;;;;;;;;;5045536;28;20052;-58
2021/06/17 12:29:48;;;;;;;10.25;2.08;;;;;;;;;;5042506;28;20056;-58
2021/06/17 12:32:31;;;;;;;9.00;2.20;;;;;;;;;;5045400;28;20048;-59
2021/06/17 12:35:09;;;;;;;11.13;2.15;;;;;;;;;;5040420;28;20048;-59
2021/06/17 12:37:50;;;;;;;3.88;2.17;;;;;;;;;;5045209;28;20059;-59
2021/06/17 12:40:29;;;;;;;8.95;2.30;;;;;;;;;;5042338;28;20044;-58
2021/06/17 12:43:09;;;;;;;5.32;2.25;;;;;;;;;;5043120;28;20063;-59
2021/06/17 12:45:36;;;;;;;5.75;2.22;;;;;;;;;;5040371;28;20055;-60
2021/06/17 12:48:16;;;;;;;13.43;2.10;;;;;;;;;;5045153;28;20061;-60
2021/06/17 12:53:26;;;;;;;7.13;2.05;;;;;;;;;;5044764;28;20048;-57
2021/06/17 12:55:54;;;;;;;14.00;2.63;;;;;;;;;;5040912;28;20052;-58
2021/06/17 12:58:23;;;;;;;;;;;;;;;;;;5063553;28;20040;-57
2021/06/17 13:00:56;;;;;;;10.98;2.40;;;;;;;;;;5040208;28;19924;-58
2021/06/17 13:03:24;;;;;;;11.55;2.05;;;;;;;;;;5043928;28;20053;-57
2021/06/17 13:05:53;;;;;;;15.32;3.45;;;;;;;;;;5041775;28;20033;-58
2021/06/17 13:08:21;;;;;;;15.10;2.72;;;;;;;;;;5044986;28;20059;-57
2021/06/17 13:10:50;;;;;;;10.32;2.50;;;;;;;;;;5040918;28;20036;-58
2021/06/17 13:13:17;;;;;;;8.55;2.63;;;;;;;;;;5062895;28;20055;-57
2021/06/17 13:15:45;;;;;;;5.53;1.83;;;;;;;;;;5041588;28;20041;-56
2021/06/17 13:18:13;;;;;;;9.85;2.58;;;;;;;;;;5045340;28;20080;-58
2021/06/17 13:20:43;;;;;;;11.80;2.13;;;;;;;;;;5058954;28;20082;-58
2021/06/17 13:23:14;;;;;;;6.20;2.28;;;;;;;;;;5043748;28;20049;-59
2021/06/17 13:25:41;;;;;;;7.38;2.22;;;;;;;;;;5040873;28;20082;-59
2021/06/17 13:28:22;;;;;;;6.80;1.90;;;;;;;;;;5044237;28;20107;-58
2021/06/17 13:30:49;;;;;;;8.63;2.30;;;;;;;;;;5036967;28;20041;-59
2021/06/17 13:33:15;;;;;;;8.80;2.40;;;;;;;;;;5025231;28;20095;-59
2021/06/17 13:35:43;;;;;;;4.68;2.00;;;;;;;;;;5024329;28;20041;-60
2021/06/17 13:38:10;;;;;;;9.90;2.75;;;;;;;;;;5061408;28;20063;-59
2021/06/17 13:40:36;;;;;;;5.97;2.10;;;;;;;;;;5061087;28;20134;-58
2021/06/17 13:43:03;;;;;;;6.40;2.40;;;;;;;;;;5061560;28;20114;-58
2021/06/17 13:45:30;;;;;;;6.73;2.00;;;;;;;;;;5047156;28;20040;-58
2021/06/17 13:47:56;;;;;;;5.28;2.10;;;;;;;;;;5042380;28;20037;-59
2021/06/17 13:50:24;;;;;;;7.60;1.95;;;;;;;;;;5043137;28;20037;-58
2021/06/17 13:52:52;;;;;;;7.07;1.98;;;;;;;;;;5015060;28;20073;-59
2021/06/17 13:55:19;;;;;;;5.75;1.85;;;;;;;;;;5044399;28;20114;-58
2021/06/17 13:57:46;;;;;;;6.03;2.03;;;;;;;;;;5041152;28;20068;-57
2021/06/17 14:00:14;;;;;;;5.72;2.08;;;;;;;;;;5044537;28;20033;-60
2021/06/17 14:02:41;;;;;;;3.22;1.88;;;;;;;;;;5037613;28;20041;-58
2021/06/17 14:05:08;;;;;;;10.30;2.15;;;;;;;;;;5039379;28;20033;-57
2021/06/17 14:07:35;;;;;;;10.00;1.98;;;;;;;;;;5058041;28;20048;-58
2021/06/17 14:10:04;;;;;;;7.55;2.55;;;;;;;;;;5043590;28;20043;-57
2021/06/17 14:12:30;;;;;;;11.50;2.50;;;;;;;;;;5040331;28;20126;-58
2021/06/17 14:15:00;;;;;;;8.45;2.85;;;;;;;;;;5062077;28;20163;-57
2021/06/17 14:17:26;;;;;;;4.85;2.03;;;;;;;;;;5043600;28;20049;-57
2021/06/17 14:19:53;;;;;;;6.90;2.13;;;;;;;;;;5043820;28;20095;-57
2021/06/17 14:22:19;;;;;;;10.43;1.92;;;;;;;;;;5042562;28;20041;-57
2021/06/17 14:24:47;;;;;;;5.45;2.10;;;;;;;;;;5029635;28;20073;-57
2021/06/17 14:27:14;;;;;;;8.48;2.13;;;;;;;;;;5043558;28;20051;-57
2021/06/17 14:29:41;;;;;;;6.85;2.50;;;;;;;;;;5041002;28;20052;-58
2021/06/17 14:32:08;;;;;;;5.10;2.05;;;;;;;;;;5042828;28;20033;-57
2021/06/17 14:34:34;;;;;;;7.57;2.28;;;;;;;;;;5040587;28;20134;-58
2021/06/17 14:37:01;;;;;;;5.13;2.05;;;;;;;;;;5044593;28;20041;-59
2021/06/17 14:39:28;;;;;;;9.13;2.28;;;;;;;;;;5037419;28;20041;-59
2021/06/17 14:41:54;;;;;;;11.80;2.47;;;;;;;;;;5023770;28;20057;-60
2021/06/17 14:44:22;;;;;;;4.85;1.90;;;;;;;;;;5022905;28;20045;-59
2021/06/17 14:46:49;;;;;;;6.97;2.17;;;;;;;;;;5022081;28;20055;-60
2021/06/17 14:49:15;;;;;;;10.93;3.20;;;;;;;;;;5021919;28;20101;-59
2021/06/17 14:51:42;;;;;;;9.85;2.90;;;;;;;;;;5023467;28;20052;-59